sensor_id;sensor_type;location;lat;lon;timestamp;pressure;altitude;pressure_sealevel;temperature;humidity
23166;BME280;11751;42.700;24.170;2023-03-22T00:01:11;93528.34;;;10.42;100.00
23166;BME280;11751;42.700;24.170;2023-03-22T00:03:37;93529.31;;;10.37;100.00
23166;BME280;11751;42.700;24.170;2023-03-22T00:06:03;93530.78;;;10.38;100.00
23166;BME280;11751;42.700;24.170;2023-03-22T00:08:29;93531.16;;;10.42;100.00
23166;BME280;11751;42.700;24.170;2023-03-22T00:10:54;93527.94;;;10.46;100.00
23166;BME280;11751;42.700;24.170;2023-03-22T00:13:20;93526.28;;;10.43;100.00
23166;BME280;11751;42.700;24.170;2023-03-22T00:15:45;93527.56;;;10.18;100.00
23166;BME280;11751;42.700;24.170;2023-03-22T00:18:14;93528.06;;;10.23;100.00
23166;BME280;11751;42.700;24.170;2023-03-22T00:20:46;93521.16;;;10.24;100.00
23166;BME280;11751;42.700;24.170;2023-03-22T00:23:12;93526.44;;;10.21;100.00
23166;BME280;11751;42.700;24.170;2023-03-22T00:25:37;93516.16;;;10.23;100.00
23166;BME280;11751;42.700;24.170;2023-03-22T00:28:03;93512.66;;;10.15;100.00
23166;BME280;11751;42.700;24.170;2023-03-22T00:30:28;93520.06;;;10.20;100.00
23166;BME280;11751;42.700;24.170;2023-03-22T00:32:53;93513.00;;;10.19;100.00
23166;BME280;11751;42.700;24.170;2023-03-22T00:35:19;93514.25;;;10.25;100.00
23166;BME280;11751;42.700;24.170;2023-03-22T00:37:45;93519.53;;;10.22;100.00
23166;BME280;11751;42.700;24.170;2023-03-22T00:40:12;93518.03;;;10.21;100.00
23166;BME280;11751;42.700;24.170;2023-03-22T00:42:39;93501.56;;;10.24;100.00
23166;BME280;11751;42.700;24.170;2023-03-22T00:45:06;93510.38;;;10.21;100.00
23166;BME280;11751;42.700;24.170;2023-03-22T00:47:32;93508.66;;;10.25;100.00
23166;BME280;11751;42.700;24.170;2023-03-22T00:49:58;93509.19;;;10.31;100.00
23166;BME280;11751;42.700;24.170;2023-03-22T00:52:24;93504.91;;;10.30;100.00
23166;BME280;11751;42.700;24.170;2023-03-22T00:54:50;93500.34;;;10.18;100.00
23166;BME280;11751;42.700;24.170;2023-03-22T00:57:15;93500.88;;;10.17;100.00
23166;BME280;11751;42.700;24.170;2023-03-22T00:59:42;93495.19;;;10.07;100.00
23166;BME280;11751;42.700;24.170;2023-03-22T01:02:08;93504.13;;;10.06;100.00
23166;BME280;11751;42.700;24.170;2023-03-22T01:04:38;93495.97;;;9.93;100.00
23166;BME280;11751;42.700;24.170;2023-03-22T01:07:04;93500.09;;;9.92;100.00
23166;BME280;11751;42.700;24.170;2023-03-22T01:09:32;93493.41;;;9.87;100.00
23166;BME280;11751;42.700;24.170;2023-03-22T01:11:58;93488.94;;;9.77;100.00
23166;BME280;11751;42.700;24.170;2023-03-22T01:14:24;93488.19;;;9.84;100.00
23166;BME280;11751;42.700;24.170;2023-03-22T01:16:51;93481.81;;;9.91;100.00
23166;BME280;11751;42.700;24.170;2023-03-22T01:19:19;93489.63;;;9.92;100.00
23166;BME280;11751;42.700;24.170;2023-03-22T01:21:45;93472.00;;;9.75;100.00
23166;BME280;11751;42.700;24.170;2023-03-22T01:24:10;93478.84;;;9.89;100.00
23166;BME280;11751;42.700;24.170;2023-03-22T01:26:36;93489.63;;;9.92;100.00
23166;BME280;11751;42.700;24.170;2023-03-22T01:29:03;93483.38;;;9.77;100.00
23166;BME280;11751;42.700;24.170;2023-03-22T01:31:29;93481.44;;;9.87;100.00
23166;BME280;11751;42.700;24.170;2023-03-22T01:33:55;93477.97;;;9.79;100.00
23166;BME280;11751;42.700;24.170;2023-03-22T01:36:20;93481.16;;;9.75;100.00
23166;BME280;11751;42.700;24.170;2023-03-22T01:38:46;93484.13;;;9.77;100.00
23166;BME280;11751;42.700;24.170;2023-03-22T01:41:11;93483.50;;;9.86;100.00
23166;BME280;11751;42.700;24.170;2023-03-22T01:43:36;93484.78;;;9.93;100.00
23166;BME280;11751;42.700;24.170;2023-03-22T01:46:02;93478.03;;;9.96;100.00
23166;BME280;11751;42.700;24.170;2023-03-22T01:48:38;93484.00;;;10.07;100.00
23166;BME280;11751;42.700;24.170;2023-03-22T01:51:16;93484.00;;;10.07;100.00
23166;BME280;11751;42.700;24.170;2023-03-22T01:53:47;93480.78;;;10.11;100.00
23166;BME280;11751;42.700;24.170;2023-03-22T01:56:16;93479.50;;;10.12;100.00
23166;BME280;11751;42.700;24.170;2023-03-22T01:58:43;93486.91;;;10.17;100.00
23166;BME280;11751;42.700;24.170;2023-03-22T02:01:10;93490.47;;;10.17;100.00
23166;BME280;11751;42.700;24.170;2023-03-22T02:03:44;93485.59;;;10.18;100.00
23166;BME280;11751;42.700;24.170;2023-03-22T02:06:12;93498.78;;;10.24;100.00
23166;BME280;11751;42.700;24.170;2023-03-22T02:08:37;93494.34;;;10.22;100.00
23166;BME280;11751;42.700;24.170;2023-03-22T02:11:05;93493.97;;;10.18;100.00
23166;BME280;11751;42.700;24.170;2023-03-22T02:22:38;93502.50;;;9.88;100.00
23166;BME280;11751;42.700;24.170;2023-03-22T02:25:31;93496.91;;;9.88;100.00
23166;BME280;11751;42.700;24.170;2023-03-22T02:33:35;93502.38;;;9.78;100.00
23166;BME280;11751;42.700;24.170;2023-03-22T02:39:29;93509.06;;;9.83;100.00
23166;BME280;11751;42.700;24.170;2023-03-22T02:45:06;93507.28;;;9.63;100.00
23166;BME280;11751;42.700;24.170;2023-03-22T02:47:42;93514.72;;;9.68;100.00
23166;BME280;11751;42.700;24.170;2023-03-22T02:50:48;93516.19;;;9.69;100.00
23166;BME280;11751;42.700;24.170;2023-03-22T02:53:19;93516.19;;;9.76;100.00
23166;BME280;11751;42.700;24.170;2023-03-22T02:56:02;93508.81;;;9.49;100.00
23166;BME280;11751;42.700;24.170;2023-03-22T02:58:42;93511.44;;;9.47;100.00
23166;BME280;11751;42.700;24.170;2023-03-22T03:01:20;93518.47;;;9.63;100.00
23166;BME280;11751;42.700;24.170;2023-03-22T03:03:48;93522.91;;;9.66;100.00
23166;BME280;11751;42.700;24.170;2023-03-22T03:06:19;93515.50;;;9.61;100.00
23166;BME280;11751;42.700;24.170;2023-03-22T03:08:47;93523.47;;;9.72;100.00
23166;BME280;11751;42.700;24.170;2023-03-22T03:11:15;93520.31;;;9.68;100.00
23166;BME280;11751;42.700;24.170;2023-03-22T03:13:40;93513.22;;;9.67;100.00
23166;BME280;11751;42.700;24.170;2023-03-22T03:16:10;93519.19;;;9.71;100.00
23166;BME280;11751;42.700;24.170;2023-03-22T03:19:18;93525.13;;;9.75;100.00
23166;BME280;11751;42.700;24.170;2023-03-22T03:24:38;93519.53;;;9.75;100.00
23166;BME280;11751;42.700;24.170;2023-03-22T03:27:16;93522.16;;;9.73;100.00
23166;BME280;11751;42.700;24.170;2023-03-22T03:29:52;93518.44;;;9.70;100.00
23166;BME280;11751;42.700;24.170;2023-03-22T03:34:54;93519.69;;;9.84;100.00
23166;BME280;11751;42.700;24.170;2023-03-22T03:37:30;93521.44;;;9.65;100.00
23166;BME280;11751;42.700;24.170;2023-03-22T03:40:14;93524.78;;;9.71;100.00
23166;BME280;11751;42.700;24.170;2023-03-22T03:42:48;93516.94;;;9.69;100.00
23166;BME280;11751;42.700;24.170;2023-03-22T03:45:15;93526.22;;;9.79;100.00
23166;BME280;11751;42.700;24.170;2023-03-22T03:47:43;93524.69;;;9.86;100.00
23166;BME280;11751;42.700;24.170;2023-03-22T03:50:12;93526.78;;;9.78;100.00
23166;BME280;11751;42.700;24.170;2023-03-22T03:52:39;93525.09;;;9.82;100.00
23166;BME280;11751;42.700;24.170;2023-03-22T03:55:05;93524.69;;;9.86;100.00
23166;BME280;11751;42.700;24.170;2023-03-22T03:57:31;93524.88;;;9.88;100.00
23166;BME280;11751;42.700;24.170;2023-03-22T03:59:56;93526.94;;;9.87;100.00
23166;BME280;11751;42.700;24.170;2023-03-22T04:02:22;93524.66;;;9.93;100.00
23166;BME280;11751;42.700;24.170;2023-03-22T04:04:47;93529.53;;;9.93;100.00
23166;BME280;11751;42.700;24.170;2023-03-22T04:07:13;93521.16;;;9.93;100.00
23166;BME280;11751;42.700;24.170;2023-03-22T04:09:38;93533.28;;;9.88;100.00
23166;BME280;11751;42.700;24.170;2023-03-22T04:12:04;93531.78;;;9.87;100.00
23166;BME280;11751;42.700;24.170;2023-03-22T04:14:30;93533.66;;;9.84;100.00
23166;BME280;11751;42.700;24.170;2023-03-22T04:16:55;93535.53;;;9.82;100.00
23166;BME280;11751;42.700;24.170;2023-03-22T04:19:21;93539.06;;;9.82;100.00
23166;BME280;11751;42.700;24.170;2023-03-22T04:21:47;93546.53;;;9.80;100.00
23166;BME280;11751;42.700;24.170;2023-03-22T04:24:13;93548.22;;;9.83;100.00
23166;BME280;11751;42.700;24.170;2023-03-22T04:26:39;93545.06;;;9.79;100.00
23166;BME280;11751;42.700;24.170;2023-03-22T04:29:05;93539.66;;;9.81;100.00
23166;BME280;11751;42.700;24.170;2023-03-22T04:31:31;93547.44;;;9.90;100.00
23166;BME280;11751;42.700;24.170;2023-03-22T04:33:58;93538.53;;;9.84;100.00
23166;BME280;11751;42.700;24.170;2023-03-22T04:36:25;93553.06;;;9.75;100.00
23166;BME280;11751;42.700;24.170;2023-03-22T04:38:55;93550.28;;;9.75;100.00
23166;BME280;11751;42.700;24.170;2023-03-22T04:41:21;93546.91;;;9.84;100.00
23166;BME280;11751;42.700;24.170;2023-03-22T04:43:46;93561.22;;;9.88;100.00
23166;BME280;11751;42.700;24.170;2023-03-22T04:46:15;93557.53;;;9.78;100.00
23166;BME280;11751;42.700;24.170;2023-03-22T04:48:41;93559.41;;;9.83;100.00
23166;BME280;11751;42.700;24.170;2023-03-22T04:51:08;93564.78;;;9.88;100.00
23166;BME280;11751;42.700;24.170;2023-03-22T04:53:35;93566.44;;;9.99;100.00
23166;BME280;11751;42.700;24.170;2023-03-22T04:56:09;93562.66;;;10.04;100.00
23166;BME280;11751;42.700;24.170;2023-03-22T04:58:37;93570.50;;;10.05;100.00
23166;BME280;11751;42.700;24.170;2023-03-22T05:01:04;93570.16;;;10.01;100.00
23166;BME280;11751;42.700;24.170;2023-03-22T05:03:30;93577.78;;;10.08;100.00
23166;BME280;11751;42.700;24.170;2023-03-22T05:05:57;93576.09;;;10.13;100.00
23166;BME280;11751;42.700;24.170;2023-03-22T05:08:24;93578.88;;;10.13;100.00
23166;BME280;11751;42.700;24.170;2023-03-22T05:10:51;93579.78;;;10.15;100.00
23166;BME280;11751;42.700;24.170;2023-03-22T05:13:17;93575.72;;;10.09;100.00
23166;BME280;11751;42.700;24.170;2023-03-22T05:15:43;93579.44;;;10.11;100.00
23166;BME280;11751;42.700;24.170;2023-03-22T05:18:09;93585.34;;;10.23;100.00
23166;BME280;11751;42.700;24.170;2023-03-22T05:20:35;93588.31;;;10.24;100.00
23166;BME280;11751;42.700;24.170;2023-03-22T05:23:01;93590.19;;;10.22;100.00
23166;BME280;11751;42.700;24.170;2023-03-22T05:25:29;93594.09;;;10.26;100.00
23166;BME280;11751;42.700;24.170;2023-03-22T05:27:54;93594.63;;;10.32;100.00
23166;BME280;11751;42.700;24.170;2023-03-22T05:30:26;93594.63;;;10.32;100.00
23166;BME280;11751;42.700;24.170;2023-03-22T05:32:56;93593.47;;;10.35;100.00
23166;BME280;11751;42.700;24.170;2023-03-22T05:35:21;93594.97;;;10.36;100.00
23166;BME280;11751;42.700;24.170;2023-03-22T05:37:47;93603.16;;;10.42;100.00
23166;BME280;11751;42.700;24.170;2023-03-22T05:40:12;93606.47;;;10.48;100.00
23166;BME280;11751;42.700;24.170;2023-03-22T05:42:38;93607.84;;;10.39;100.00
23166;BME280;11751;42.700;24.170;2023-03-22T05:45:04;93609.06;;;10.53;100.00
23166;BME280;11751;42.700;24.170;2023-03-22T05:47:30;93605.31;;;10.58;100.00
23166;BME280;11751;42.700;24.170;2023-03-22T05:49:55;93600.84;;;10.55;100.00
23166;BME280;11751;42.700;24.170;2023-03-22T05:52:21;93609.78;;;10.61;100.00
23166;BME280;11751;42.700;24.170;2023-03-22T05:54:46;93610.47;;;10.69;100.00
23166;BME280;11751;42.700;24.170;2023-03-22T05:57:12;93620.88;;;10.76;100.00
23166;BME280;11751;42.700;24.170;2023-03-22T05:59:37;93626.25;;;10.82;100.00
23166;BME280;11751;42.700;24.170;2023-03-22T06:02:02;93623.50;;;10.74;100.00
23166;BME280;11751;42.700;24.170;2023-03-22T06:04:28;93618.22;;;10.86;100.00
23166;BME280;11751;42.700;24.170;2023-03-22T06:06:54;93626.19;;;10.89;100.00
23166;BME280;11751;42.700;24.170;2023-03-22T06:09:20;93634.16;;;11.00;100.00
23166;BME280;11751;42.700;24.170;2023-03-22T06:11:45;93633.44;;;10.92;100.00
23166;BME280;11751;42.700;24.170;2023-03-22T06:14:11;93633.00;;;11.03;100.00
23166;BME280;11751;42.700;24.170;2023-03-22T06:16:36;93640.13;;;10.97;100.00
23166;BME280;11751;42.700;24.170;2023-03-22T06:19:02;93619.63;;;10.94;100.00
23166;BME280;11751;42.700;24.170;2023-03-22T06:21:27;93644.38;;;11.05;100.00
23166;BME280;11751;42.700;24.170;2023-03-22T06:23:52;93646.13;;;10.93;100.00
23166;BME280;11751;42.700;24.170;2023-03-22T06:26:18;93646.78;;;11.08;100.00
23166;BME280;11751;42.700;24.170;2023-03-22T06:28:43;93653.06;;;11.16;100.00
23166;BME280;11751;42.700;24.170;2023-03-22T06:31:09;93653.03;;;11.24;100.00
23166;BME280;11751;42.700;24.170;2023-03-22T06:33:35;93651.88;;;11.27;100.00
23166;BME280;11751;42.700;24.170;2023-03-22T06:36:02;93656.19;;;11.28;100.00
23166;BME280;11751;42.700;24.170;2023-03-22T06:38:28;93655.53;;;11.37;100.00
23166;BME280;11751;42.700;24.170;2023-03-22T06:40:54;93652.50;;;11.42;100.00
23166;BME280;11751;42.700;24.170;2023-03-22T06:43:19;93659.31;;;11.32;99.50
23166;BME280;11751;42.700;24.170;2023-03-22T06:45:45;93652.91;;;11.39;100.00
23166;BME280;11751;42.700;24.170;2023-03-22T06:48:11;93659.53;;;11.51;99.31
23166;BME280;11751;42.700;24.170;2023-03-22T06:50:36;93672.63;;;11.48;99.35
23166;BME280;11751;42.700;24.170;2023-03-22T06:53:03;93667.44;;;11.45;99.31
23166;BME280;11751;42.700;24.170;2023-03-22T06:55:29;93675.81;;;11.52;99.43
23166;BME280;11751;42.700;24.170;2023-03-22T06:58:02;93672.13;;;11.42;99.69
23166;BME280;11751;42.700;24.170;2023-03-22T07:00:28;93677.16;;;11.44;99.16
23166;BME280;11751;42.700;24.170;2023-03-22T07:02:53;93679.72;;;11.49;99.04
23166;BME280;11751;42.700;24.170;2023-03-22T07:05:19;93672.22;;;11.52;98.63
23166;BME280;11751;42.700;24.170;2023-03-22T07:07:45;93696.53;;;11.57;99.24
23166;BME280;11751;42.700;24.170;2023-03-22T07:10:10;93684.38;;;11.30;100.00
23166;BME280;11751;42.700;24.170;2023-03-22T07:12:36;93686.56;;;11.39;99.98
23166;BME280;11751;42.700;24.170;2023-03-22T07:15:02;93692.66;;;11.45;99.12
23166;BME280;11751;42.700;24.170;2023-03-22T07:17:28;93695.94;;;11.34;99.56
23166;BME280;11751;42.700;24.170;2023-03-22T07:19:53;93700.41;;;11.37;100.00
23166;BME280;11751;42.700;24.170;2023-03-22T07:22:18;93696.16;;;11.28;100.00
23166;BME280;11751;42.700;24.170;2023-03-22T07:24:53;93694.56;;;11.42;100.00
23166;BME280;11751;42.700;24.170;2023-03-22T07:27:18;93701.84;;;11.45;100.00
23166;BME280;11751;42.700;24.170;2023-03-22T07:29:44;93710.81;;;11.44;100.00
23166;BME280;11751;42.700;24.170;2023-03-22T07:32:09;93714.63;;;11.31;100.00
23166;BME280;11751;42.700;24.170;2023-03-22T07:34:35;93711.25;;;11.33;100.00
23166;BME280;11751;42.700;24.170;2023-03-22T07:37:00;93710.47;;;11.40;99.96
23166;BME280;11751;42.700;24.170;2023-03-22T07:39:28;93711.94;;;11.41;100.00
23166;BME280;11751;42.700;24.170;2023-03-22T07:41:54;93714.22;;;11.35;99.76
23166;BME280;11751;42.700;24.170;2023-03-22T07:44:21;93716.69;;;11.31;100.00
23166;BME280;11751;42.700;24.170;2023-03-22T07:46:46;93717.31;;;11.22;100.00
23166;BME280;11751;42.700;24.170;2023-03-22T07:49:13;93718.09;;;11.15;100.00
23166;BME280;11751;42.700;24.170;2023-03-22T07:51:39;93716.63;;;11.14;99.51
23166;BME280;11751;42.700;24.170;2023-03-22T07:54:05;93718.13;;;11.07;99.36
23166;BME280;11751;42.700;24.170;2023-03-22T07:56:31;93725.00;;;10.82;100.00
23166;BME280;11751;42.700;24.170;2023-03-22T07:58:56;93708.69;;;10.56;99.51
23166;BME280;11751;42.700;24.170;2023-03-22T08:01:22;93729.88;;;10.35;99.78
23166;BME280;11751;42.700;24.170;2023-03-22T08:03:49;93730.47;;;10.19;97.88
23166;BME280;11751;42.700;24.170;2023-03-22T08:06:15;93728.91;;;10.40;97.74
23166;BME280;11751;42.700;24.170;2023-03-22T08:08:43;93730.38;;;10.56;97.24
23166;BME280;11751;42.700;24.170;2023-03-22T08:11:09;93733.13;;;10.63;95.43
23166;BME280;11751;42.700;24.170;2023-03-22T08:13:36;93735.81;;;10.39;95.34
23166;BME280;11751;42.700;24.170;2023-03-22T08:16:02;93735.47;;;10.42;96.19
23166;BME280;11751;42.700;24.170;2023-03-22T08:18:28;93741.59;;;10.48;94.97
23166;BME280;11751;42.700;24.170;2023-03-22T08:20:54;93750.16;;;10.50;93.54
23166;BME280;11751;42.700;24.170;2023-03-22T08:23:21;93745.69;;;10.47;94.59
23166;BME280;11751;42.700;24.170;2023-03-22T08:25:46;93746.78;;;10.59;95.92
23166;BME280;11751;42.700;24.170;2023-03-22T08:28:12;93742.06;;;10.69;97.22
23166;BME280;11751;42.700;24.170;2023-03-22T08:30:40;93739.59;;;10.73;97.79
23166;BME280;11751;42.700;24.170;2023-03-22T08:33:05;93748.16;;;10.83;97.46
23166;BME280;11751;42.700;24.170;2023-03-22T08:35:31;93733.41;;;10.82;97.23
23166;BME280;11751;42.700;24.170;2023-03-22T08:37:56;93750.16;;;10.97;96.28
23166;BME280;11751;42.700;24.170;2023-03-22T08:40:22;93748.84;;;10.98;95.44
23166;BME280;11751;42.700;24.170;2023-03-22T08:42:50;93758.91;;;11.01;96.16
23166;BME280;11751;42.700;24.170;2023-03-22T08:45:16;93749.63;;;10.91;97.36
23166;BME280;11751;42.700;24.170;2023-03-22T08:47:42;93757.75;;;11.04;97.20
23166;BME280;11751;42.700;24.170;2023-03-22T08:50:08;93755.94;;;10.99;97.53
23166;BME280;11751;42.700;24.170;2023-03-22T08:52:34;93759.34;;;10.90;97.33
23166;BME280;11751;42.700;24.170;2023-03-22T08:55:00;93771.84;;;10.89;96.14
23166;BME280;11751;42.700;24.170;2023-03-22T08:57:26;93765.09;;;10.92;96.37
23166;BME280;11751;42.700;24.170;2023-03-22T08:59:55;93760.47;;;10.87;97.59
23166;BME280;11751;42.700;24.170;2023-03-22T09:02:25;93763.09;;;10.85;97.14
23166;BME280;11751;42.700;24.170;2023-03-22T09:04:51;93770.59;;;10.75;97.20
23166;BME280;11751;42.700;24.170;2023-03-22T09:07:17;93763.50;;;10.74;97.71
23166;BME280;11751;42.700;24.170;2023-03-22T09:09:44;93777.16;;;10.70;98.37
23166;BME280;11751;42.700;24.170;2023-03-22T09:12:10;93769.88;;;10.75;97.93
23166;BME280;11751;42.700;24.170;2023-03-22T09:14:35;93770.97;;;10.79;98.26
23166;BME280;11751;42.700;24.170;2023-03-22T09:17:01;93775.41;;;10.82;98.12
23166;BME280;11751;42.700;24.170;2023-03-22T09:19:27;93776.16;;;10.83;98.17
23166;BME280;11751;42.700;24.170;2023-03-22T09:21:52;93770.19;;;10.79;97.97
23166;BME280;11751;42.700;24.170;2023-03-22T09:24:18;93776.50;;;10.87;97.32
23166;BME280;11751;42.700;24.170;2023-03-22T09:26:44;93774.25;;;10.93;96.89
23166;BME280;11751;42.700;24.170;2023-03-22T09:29:11;93770.16;;;10.94;96.74
23166;BME280;11751;42.700;24.170;2023-03-22T09:31:36;93772.03;;;10.91;97.18
23166;BME280;11751;42.700;24.170;2023-03-22T09:34:02;93767.75;;;10.90;98.08
23166;BME280;11751;42.700;24.170;2023-03-22T09:36:27;93766.69;;;10.71;99.55
23166;BME280;11751;42.700;24.170;2023-03-22T09:38:52;93768.91;;;10.72;99.13
23166;BME280;11751;42.700;24.170;2023-03-22T09:41:22;93771.34;;;10.76;98.92
23166;BME280;11751;42.700;24.170;2023-03-22T09:43:53;93772.66;;;10.75;99.43
23166;BME280;11751;42.700;24.170;2023-03-22T09:46:51;93777.47;;;10.89;98.96
23166;BME280;11751;42.700;24.170;2023-03-22T09:49:21;93774.88;;;10.84;98.91
23166;BME280;11751;42.700;24.170;2023-03-22T09:51:52;93775.88;;;10.64;100.00
23166;BME280;11751;42.700;24.170;2023-03-22T09:54:39;93778.75;;;10.88;99.94
23166;BME280;11751;42.700;24.170;2023-03-22T09:57:28;93773.50;;;10.92;99.41
23166;BME280;11751;42.700;24.170;2023-03-22T10:00:10;93765.28;;;10.94;99.92
23166;BME280;11751;42.700;24.170;2023-03-22T10:08:23;93772.66;;;11.14;99.67
23166;BME280;11751;42.700;24.170;2023-03-22T10:10:51;93772.75;;;10.99;99.46
23166;BME280;11751;42.700;24.170;2023-03-22T10:13:59;93787.94;;;11.20;99.21
23166;BME280;11751;42.700;24.170;2023-03-22T10:16:27;93780.44;;;11.23;99.00
23166;BME280;11751;42.700;24.170;2023-03-22T10:19:00;93782.91;;;11.19;98.71
23166;BME280;11751;42.700;24.170;2023-03-22T10:21:26;93792.63;;;11.18;97.62
23166;BME280;11751;42.700;24.170;2023-03-22T10:23:56;93784.22;;;11.18;96.20
23166;BME280;11751;42.700;24.170;2023-03-22T10:26:38;93800.63;;;11.29;94.80
23166;BME280;11751;42.700;24.170;2023-03-22T10:29:17;93787.16;;;11.27;94.65
23166;BME280;11751;42.700;24.170;2023-03-22T10:31:46;93759.94;;;11.13;97.06
23166;BME280;11751;42.700;24.170;2023-03-22T10:36:43;93784.94;;;11.26;97.16
23166;BME280;11751;42.700;24.170;2023-03-22T10:41:57;93777.38;;;11.36;98.25
23166;BME280;11751;42.700;24.170;2023-03-22T10:44:25;93777.69;;;11.47;97.46
23166;BME280;11751;42.700;24.170;2023-03-22T10:46:54;93770.75;;;11.48;97.07
23166;BME280;11751;42.700;24.170;2023-03-22T10:49:26;93775.44;;;11.53;96.86
23166;BME280;11751;42.700;24.170;2023-03-22T10:51:57;93756.75;;;11.48;97.37
23166;BME280;11751;42.700;24.170;2023-03-22T10:54:26;93759.63;;;11.65;96.58
23166;BME280;11751;42.700;24.170;2023-03-22T10:56:52;93770.00;;;11.80;96.61
23166;BME280;11751;42.700;24.170;2023-03-22T10:59:46;93762.75;;;11.77;96.69
23166;BME280;11751;42.700;24.170;2023-03-22T11:02:31;93755.00;;;11.85;95.51
23166;BME280;11751;42.700;24.170;2023-03-22T11:05:02;93758.72;;;11.63;95.80
23166;BME280;11751;42.700;24.170;2023-03-22T11:13:09;93774.47;;;11.83;95.34
23166;BME280;11751;42.700;24.170;2023-03-22T11:15:47;93763.69;;;11.72;95.11
23166;BME280;11751;42.700;24.170;2023-03-22T11:18:15;93762.22;;;11.71;94.57
23166;BME280;11751;42.700;24.170;2023-03-22T11:20:52;93759.41;;;11.71;94.27
23166;BME280;11751;42.700;24.170;2023-03-22T11:23:19;93756.22;;;11.74;93.73
23166;BME280;11751;42.700;24.170;2023-03-22T11:25:47;93746.88;;;11.72;93.43
23166;BME280;11751;42.700;24.170;2023-03-22T11:28:27;93750.66;;;11.67;92.65
23166;BME280;11751;42.700;24.170;2023-03-22T11:31:11;93746.38;;;11.66;91.92
23166;BME280;11751;42.700;24.170;2023-03-22T11:33:47;93744.25;;;11.74;90.93
23166;BME280;11751;42.700;24.170;2023-03-22T11:36:18;93737.59;;;11.86;90.74
23166;BME280;11751;42.700;24.170;2023-03-22T11:38:44;93744.94;;;11.82;88.75
23166;BME280;11751;42.700;24.170;2023-03-22T11:43:40;93744.03;;;11.79;89.83
23166;BME280;11751;42.700;24.170;2023-03-22T11:46:08;93748.25;;;11.88;89.64
23166;BME280;11751;42.700;24.170;2023-03-22T11:48:35;93748.31;;;11.80;88.78
23166;BME280;11751;42.700;24.170;2023-03-22T11:51:09;93745.28;;;11.86;89.10
23166;BME280;11751;42.700;24.170;2023-03-22T11:53:39;93742.25;;;11.67;91.13
23166;BME280;11751;42.700;24.170;2023-03-22T11:56:09;93742.44;;;11.69;90.92
23166;BME280;11751;42.700;24.170;2023-03-22T11:59:04;93741.38;;;11.81;91.22
23166;BME280;11751;42.700;24.170;2023-03-22T12:01:43;93739.00;;;11.78;90.09
23166;BME280;11751;42.700;24.170;2023-03-22T12:04:17;93740.41;;;11.86;90.12
23166;BME280;11751;42.700;24.170;2023-03-22T12:06:45;93741.16;;;11.87;89.76
23166;BME280;11751;42.700;24.170;2023-03-22T12:09:23;93737.03;;;11.88;88.69
23166;BME280;11751;42.700;24.170;2023-03-22T12:11:56;93741.56;;;11.83;87.40
23166;BME280;11751;42.700;24.170;2023-03-22T12:14:27;93746.13;;;11.95;88.04
23166;BME280;11751;42.700;24.170;2023-03-22T12:22:34;93743.31;;;11.95;87.29
23166;BME280;11751;42.700;24.170;2023-03-22T12:25:02;93731.00;;;11.91;88.04
23166;BME280;11751;42.700;24.170;2023-03-22T12:27:36;93730.09;;;11.89;88.76
23166;BME280;11751;42.700;24.170;2023-03-22T12:30:17;93736.44;;;11.89;89.17
23166;BME280;11751;42.700;24.170;2023-03-22T12:32:48;93729.75;;;11.85;88.62
23166;BME280;11751;42.700;24.170;2023-03-22T12:35:23;93734.22;;;11.88;88.70
23166;BME280;11751;42.700;24.170;2023-03-22T12:37:51;93727.53;;;11.83;89.86
23166;BME280;11751;42.700;24.170;2023-03-22T12:40:22;93728.84;;;11.82;88.88
23166;BME280;11751;42.700;24.170;2023-03-22T12:43:10;93736.34;;;11.80;89.25
23166;BME280;11751;42.700;24.170;2023-03-22T12:45:41;93726.09;;;11.75;87.91
23166;BME280;11751;42.700;24.170;2023-03-22T12:48:19;93723.31;;;11.75;88.16
23166;BME280;11751;42.700;24.170;2023-03-22T12:51:01;93723.44;;;12.01;87.54
23166;BME280;11751;42.700;24.170;2023-03-22T12:53:52;93729.78;;;12.01;87.02
23166;BME280;11751;42.700;24.170;2023-03-22T12:56:41;93734.13;;;11.95;88.21
23166;BME280;11751;42.700;24.170;2023-03-22T12:59:15;93721.69;;;11.89;88.65
23166;BME280;11751;42.700;24.170;2023-03-22T13:19:57;93731.44;;;11.88;87.05
23166;BME280;11751;42.700;24.170;2023-03-22T13:35:27;93711.59;;;11.69;92.13
23166;BME280;11751;42.700;24.170;2023-03-22T13:38:06;93718.19;;;11.81;92.26
23166;BME280;11751;42.700;24.170;2023-03-22T13:40:47;93726.28;;;11.77;92.34
23166;BME280;11751;42.700;24.170;2023-03-22T13:46:10;93722.28;;;11.63;93.99
23166;BME280;11751;42.700;24.170;2023-03-22T13:51:27;93718.59;;;11.53;93.33
23166;BME280;11751;42.700;24.170;2023-03-22T13:59:13;93714.84;;;11.58;94.05
23166;BME280;11751;42.700;24.170;2023-03-22T14:01:49;93715.09;;;11.45;94.68
23166;BME280;11751;42.700;24.170;2023-03-22T14:04:20;93709.72;;;11.39;95.75
23166;BME280;11751;42.700;24.170;2023-03-22T14:06:58;93708.53;;;11.50;94.49
23166;BME280;11751;42.700;24.170;2023-03-22T14:09:30;93707.81;;;11.42;94.87
23166;BME280;11751;42.700;24.170;2023-03-22T14:12:10;93701.88;;;11.38;94.28
23166;BME280;11751;42.700;24.170;2023-03-22T14:14:45;93704.59;;;11.21;95.46
23166;BME280;11751;42.700;24.170;2023-03-22T14:17:33;93706.00;;;11.37;95.55
23166;BME280;11751;42.700;24.170;2023-03-22T14:20:00;93708.56;;;11.18;96.06
23166;BME280;11751;42.700;24.170;2023-03-22T14:22:35;93712.16;;;11.11;97.59
23166;BME280;11751;42.700;24.170;2023-03-22T14:25:04;93708.53;;;11.25;96.40
23166;BME280;11751;42.700;24.170;2023-03-22T14:27:32;93705.72;;;11.25;96.36
23166;BME280;11751;42.700;24.170;2023-03-22T14:29:58;93693.94;;;11.27;95.95
23166;BME280;11751;42.700;24.170;2023-03-22T14:32:26;93706.97;;;11.32;96.18